Terminal Aerodrome Forecast
Issued by NWS

Home | Current Version | Previous Version | Text Only | Print | Product List | Glossary On
Versions: 1 2 3 4 5 6 7 8 9 10 11 12 13 14 15 16 17 18 19 20 21 22
899
FTUS43 KICT 221025 AAC
TAFRSL
TAF AMD
KRSL 221025Z 2210/2306 05009KT 6SM BR SCT015 OVC035
     FM221300 05005KT 3SM -FZDZ OVC008
     FM221700 09007KT P6SM OVC012
     FM222100 15013KT P6SM OVC015
     FM230300 12009KT 4SM BR BKN008=

USA.gov is the U.S. government's official web portal to all federal, state and local government web resources and services.